Time;durP1;ratioP1;P1;durP2;ratioP2;P2;SDS_P1;SDS_P2;PMS_P1;PMS_P2;Temp;Humidity;BMP_temperature;BMP_pressure;BME280_temperature;BME280_humidity;BME280_pressure;Samples;Min_cycle;Max_cycle;Signal;HPM_P1;HPM_P2
2024/03/04 00:02:26;;;;;;;11.93;6.50;;;;;;;;;;5132857;27;20283;-83
2024/03/04 00:04:54;;;;;;;11.87;6.40;;;;;;;;;;5132867;27;20206;-84
2024/03/04 00:07:24;;;;;;;12.17;7.63;;;;;;;;;;5132562;27;20406;-84
2024/03/04 00:09:52;;;;;;;14.43;8.50;;;;;;;;;;5132918;27;20202;-84
2024/03/04 00:12:20;;;;;;;12.93;8.83;;;;;;;;;;5132583;27;20186;-84
2024/03/04 00:14:47;;;;;;;13.17;8.30;;;;;;;;;;5132565;27;20227;-83
2024/03/04 00:17:14;;;;;;;13.63;8.53;;;;;;;;;;5131851;27;20246;-83
2024/03/04 00:19:42;;;;;;;12.70;9.20;;;;;;;;;;5132388;27;20280;-83
2024/03/04 00:22:09;;;;;;;12.67;8.93;;;;;;;;;;5132888;27;20623;-84
2024/03/04 00:24:37;;;;;;;12.47;8.97;;;;;;;;;;5132067;27;20201;-83
2024/03/04 00:27:05;;;;;;;11.73;8.57;;;;;;;;;;5132077;27;20280;-84
2024/03/04 00:29:32;;;;;;;13.67;8.37;;;;;;;;;;5132304;27;20754;-84
2024/03/04 00:31:59;;;;;;;14.13;8.60;;;;;;;;;;5131961;27;20250;-83
2024/03/04 00:34:28;;;;;;;13.03;7.57;;;;;;;;;;5131902;27;20225;-84
2024/03/04 00:36:55;;;;;;;10.77;7.73;;;;;;;;;;5131755;27;20580;-84
2024/03/04 00:39:22;;;;;;;14.73;7.50;;;;;;;;;;5131898;27;20208;-82
2024/03/04 00:41:51;;;;;;;13.00;7.03;;;;;;;;;;5131737;27;20201;-83
2024/03/04 00:44:20;;;;;;;14.70;7.50;;;;;;;;;;5132085;27;20288;-83
2024/03/04 00:46:47;;;;;;;11.57;7.50;;;;;;;;;;5131919;27;20193;-84
2024/03/04 00:49:15;;;;;;;12.37;7.50;;;;;;;;;;5131957;27;20830;-83
2024/03/04 00:51:42;;;;;;;14.63;6.97;;;;;;;;;;5131953;27;20254;-83
2024/03/04 00:54:09;;;;;;;11.77;6.93;;;;;;;;;;5131668;27;20334;-83
2024/03/04 00:56:37;;;;;;;11.90;6.80;;;;;;;;;;5131766;27;20277;-84
2024/03/04 00:59:07;;;;;;;11.83;6.67;;;;;;;;;;5131363;27;20199;-83
2024/03/04 01:01:34;;;;;;;10.67;6.40;;;;;;;;;;5113130;27;20782;-83
2024/03/04 01:04:01;;;;;;;8.40;6.20;;;;;;;;;;5131773;27;20200;-84
2024/03/04 01:06:29;;;;;;;11.17;6.43;;;;;;;;;;5131567;27;20264;-83
2024/03/04 01:08:56;;;;;;;10.53;6.33;;;;;;;;;;5131056;27;20666;-84
2024/03/04 01:11:23;;;;;;;10.17;6.60;;;;;;;;;;5131523;27;20189;-83
2024/03/04 01:13:51;;;;;;;8.87;6.47;;;;;;;;;;5131162;27;20778;-84
2024/03/04 01:16:19;;;;;;;10.93;6.83;;;;;;;;;;5131297;27;20227;-83
2024/03/04 01:18:46;;;;;;;11.27;6.50;;;;;;;;;;5131565;27;20353;-84
2024/03/04 01:21:14;;;;;;;11.67;6.27;;;;;;;;;;5131546;27;20223;-84
2024/03/04 01:23:41;;;;;;;11.33;6.07;;;;;;;;;;5130838;27;20202;-84
2024/03/04 01:26:09;;;;;;;9.50;6.13;;;;;;;;;;5131602;27;20682;-82
2024/03/04 01:28:37;;;;;;;10.93;6.13;;;;;;;;;;5131011;27;20196;-83
2024/03/04 01:31:04;;;;;;;10.97;5.60;;;;;;;;;;5131315;27;20299;-84
2024/03/04 01:33:32;;;;;;;10.40;5.73;;;;;;;;;;5131053;27;20315;-83
2024/03/04 01:36:01;;;;;;;8.60;5.73;;;;;;;;;;5131239;27;20196;-84
2024/03/04 01:38:28;;;;;;;10.73;5.70;;;;;;;;;;5130430;27;20292;-83
2024/03/04 01:40:57;;;;;;;8.33;5.47;;;;;;;;;;5131340;27;20196;-83
2024/03/04 01:43:24;;;;;;;11.30;5.83;;;;;;;;;;5130789;27;20201;-84
2024/03/04 01:45:52;;;;;;;9.80;5.50;;;;;;;;;;5130121;27;20205;-84
2024/03/04 01:48:20;;;;;;;11.93;5.23;;;;;;;;;;5131688;27;20193;-84
2024/03/04 01:50:50;;;;;;;9.00;5.87;;;;;;;;;;5131052;27;20202;-84
2024/03/04 01:53:19;;;;;;;8.47;5.43;;;;;;;;;;5129998;27;20206;-83
2024/03/04 01:55:50;;;;;;;10.13;5.50;;;;;;;;;;5130768;27;20246;-84
2024/03/04 01:58:18;;;;;;;11.30;5.73;;;;;;;;;;5130552;27;20296;-83
2024/03/04 02:00:46;;;;;;;11.27;6.07;;;;;;;;;;5130504;27;20201;-84
2024/03/04 02:03:14;;;;;;;10.73;5.40;;;;;;;;;;5130228;27;20559;-84
2024/03/04 02:05:43;;;;;;;10.33;5.17;;;;;;;;;;5129938;27;20188;-83
2024/03/04 02:08:13;;;;;;;11.63;5.53;;;;;;;;;;5130014;27;20195;-84
2024/03/04 02:10:40;;;;;;;8.70;5.47;;;;;;;;;;5130264;27;20202;-84
2024/03/04 02:13:08;;;;;;;10.60;5.80;;;;;;;;;;5130753;27;20756;-83
2024/03/04 02:15:37;;;;;;;11.40;6.07;;;;;;;;;;5108298;28;20239;-84
2024/03/04 02:18:06;;;;;;;13.30;6.07;;;;;;;;;;5109653;28;20205;-83
2024/03/04 02:20:34;;;;;;;8.37;6.03;;;;;;;;;;5110042;28;20198;-84
2024/03/04 02:23:03;;;;;;;10.73;6.00;;;;;;;;;;5109634;28;20204;-84
2024/03/04 02:25:34;;;;;;;9.07;5.40;;;;;;;;;;5109469;28;20225;-84
2024/03/04 02:28:02;;;;;;;7.50;5.57;;;;;;;;;;5109647;28;20273;-83
2024/03/04 02:30:31;;;;;;;9.43;5.17;;;;;;;;;;5102177;28;20199;-82
2024/03/04 02:32:58;;;;;;;10.60;5.47;;;;;;;;;;5078327;28;20203;-83
2024/03/04 02:35:27;;;;;;;8.67;5.03;;;;;;;;;;5068730;28;20224;-83
2024/03/04 02:37:54;;;;;;;9.40;5.00;;;;;;;;;;5069189;28;20240;-83
2024/03/04 02:40:23;;;;;;;10.13;5.53;;;;;;;;;;5069009;28;20200;-83
2024/03/04 02:42:51;;;;;;;10.93;6.10;;;;;;;;;;5069179;28;20204;-84
2024/03/04 02:45:18;;;;;;;9.20;5.40;;;;;;;;;;5067342;28;20198;-83
2024/03/04 02:47:46;;;;;;;9.40;5.50;;;;;;;;;;5068879;28;20667;-83
2024/03/04 02:50:13;;;;;;;10.37;5.30;;;;;;;;;;5068312;28;20262;-83
2024/03/04 02:52:40;;;;;;;9.80;5.50;;;;;;;;;;5068749;28;20786;-84
2024/03/04 02:55:08;;;;;;;10.90;5.37;;;;;;;;;;5068875;28;20233;-83
2024/03/04 02:57:36;;;;;;;10.50;5.77;;;;;;;;;;5072836;28;20196;-83
2024/03/04 03:00:06;;;;;;;10.13;5.50;;;;;;;;;;5072613;28;20300;-84
2024/03/04 03:02:33;;;;;;;11.13;5.63;;;;;;;;;;5072697;28;20627;-82
2024/03/04 03:05:00;;;;;;;8.87;5.23;;;;;;;;;;5072444;28;20194;-83
2024/03/04 03:07:27;;;;;;;12.13;5.43;;;;;;;;;;5072293;28;20232;-83
2024/03/04 03:09:54;;;;;;;11.97;5.43;;;;;;;;;;5072958;28;20232;-83
2024/03/04 03:12:22;;;;;;;11.37;6.20;;;;;;;;;;5084300;28;20746;-83
2024/03/04 03:14:51;;;;;;;12.27;5.93;;;;;;;;;;5113052;28;20316;-84
2024/03/04 03:17:19;;;;;;;9.73;6.07;;;;;;;;;;5132502;27;20247;-82
2024/03/04 03:19:46;;;;;;;10.30;5.70;;;;;;;;;;5115354;27;20653;-83
2024/03/04 03:22:13;;;;;;;10.13;5.90;;;;;;;;;;5133588;27;20293;-84
2024/03/04 03:24:42;;;;;;;10.77;5.87;;;;;;;;;;5133350;27;20298;-83
2024/03/04 03:27:11;;;;;;;11.53;5.30;;;;;;;;;;5121782;27;20192;-84
2024/03/04 03:29:38;;;;;;;11.40;5.47;;;;;;;;;;5112550;28;20247;-83
2024/03/04 03:32:08;;;;;;;10.53;6.07;;;;;;;;;;5112629;28;20204;-83
2024/03/04 03:34:35;;;;;;;12.90;6.20;;;;;;;;;;5112553;28;20665;-83
2024/03/04 03:37:03;;;;;;;10.60;5.60;;;;;;;;;;5112735;28;20226;-84
2024/03/04 03:39:30;;;;;;;11.00;5.67;;;;;;;;;;5112816;28;20631;-83
2024/03/04 03:41:57;;;;;;;11.83;5.80;;;;;;;;;;5112777;28;20310;-84
2024/03/04 03:44:24;;;;;;;11.90;6.00;;;;;;;;;;5112328;28;20198;-83
2024/03/04 03:46:52;;;;;;;12.87;6.23;;;;;;;;;;5112747;28;20193;-84
2024/03/04 03:49:20;;;;;;;11.43;5.83;;;;;;;;;;5112141;28;20294;-85
2024/03/04 03:51:48;;;;;;;10.97;6.33;;;;;;;;;;5112339;28;20235;-84
2024/03/04 03:54:15;;;;;;;10.40;6.13;;;;;;;;;;5112433;28;20292;-84
2024/03/04 03:56:42;;;;;;;11.53;6.00;;;;;;;;;;5112125;28;20196;-84
2024/03/04 03:59:09;;;;;;;10.40;5.87;;;;;;;;;;5112777;28;20196;-83
2024/03/04 04:01:37;;;;;;;9.03;5.80;;;;;;;;;;5112835;28;20230;-82
2024/03/04 04:04:04;;;;;;;10.63;5.90;;;;;;;;;;5112835;28;20261;-84
2024/03/04 04:06:33;;;;;;;11.80;5.80;;;;;;;;;;5112243;28;20295;-84
2024/03/04 04:09:00;;;;;;;9.83;5.60;;;;;;;;;;5110898;28;20299;-83
2024/03/04 04:11:27;;;;;;;8.77;5.67;;;;;;;;;;5111925;28;20193;-83
2024/03/04 04:13:55;;;;;;;10.27;5.53;;;;;;;;;;5131004;27;20201;-83
2024/03/04 04:16:22;;;;;;;10.30;5.50;;;;;;;;;;5132576;27;20258;-83
2024/03/04 04:18:49;;;;;;;8.23;5.30;;;;;;;;;;5132283;27;20289;-84
2024/03/04 04:21:16;;;;;;;12.97;5.43;;;;;;;;;;5132707;27;20195;-83
2024/03/04 04:23:45;;;;;;;10.27;5.60;;;;;;;;;;5132675;27;20199;-84
2024/03/04 04:26:12;;;;;;;11.07;5.87;;;;;;;;;;5132915;27;20712;-84
2024/03/04 04:28:43;;;;;;;10.30;5.43;;;;;;;;;;5132168;27;20339;-83
2024/03/04 04:31:19;;;;;;;8.63;5.37;;;;;;;;;;5132385;27;20199;-83
2024/03/04 04:33:46;;;;;;;9.57;5.47;;;;;;;;;;5131849;27;20291;-83
2024/03/04 04:36:13;;;;;;;9.77;5.20;;;;;;;;;;5132240;27;20223;-83
2024/03/04 04:38:41;;;;;;;11.63;5.40;;;;;;;;;;5132307;27;20662;-84
2024/03/04 04:41:10;;;;;;;10.40;4.97;;;;;;;;;;5132328;27;20201;-84
2024/03/04 04:43:38;;;;;;;7.57;4.83;;;;;;;;;;5131815;27;20198;-84
2024/03/04 04:46:05;;;;;;;10.07;5.00;;;;;;;;;;5131724;27;20250;-84
2024/03/04 04:48:33;;;;;;;8.37;4.87;;;;;;;;;;5113657;27;20198;-85
2024/03/04 04:51:01;;;;;;;10.90;5.33;;;;;;;;;;5132113;27;20198;-83
2024/03/04 04:53:28;;;;;;;8.30;5.00;;;;;;;;;;5131685;27;20291;-84
2024/03/04 04:55:55;;;;;;;7.57;4.83;;;;;;;;;;5131635;27;20225;-84
2024/03/04 04:58:24;;;;;;;10.20;5.20;;;;;;;;;;5131846;27;20194;-83
2024/03/04 05:00:53;;;;;;;9.77;5.40;;;;;;;;;;5131544;27;20199;-84
2024/03/04 05:03:21;;;;;;;10.50;5.33;;;;;;;;;;5131768;27;20204;-83
2024/03/04 05:05:48;;;;;;;11.60;5.30;;;;;;;;;;5131698;27;20277;-83
2024/03/04 05:08:15;;;;;;;13.37;5.30;;;;;;;;;;5131424;27;20234;-83
2024/03/04 05:10:42;;;;;;;8.47;5.07;;;;;;;;;;5131441;27;20196;-84
2024/03/04 05:13:10;;;;;;;10.97;4.90;;;;;;;;;;5131496;27;20200;-83
2024/03/04 05:15:39;;;;;;;12.33;5.23;;;;;;;;;;5131494;27;20240;-83
2024/03/04 05:18:06;;;;;;;10.23;4.83;;;;;;;;;;5131168;27;20192;-84
2024/03/04 05:20:33;;;;;;;10.60;4.80;;;;;;;;;;5131296;27;20223;-83
2024/03/04 05:23:00;;;;;;;11.23;4.60;;;;;;;;;;5131493;27;20294;-84
2024/03/04 05:25:28;;;;;;;9.57;4.50;;;;;;;;;;5131001;27;20195;-83
2024/03/04 05:27:55;;;;;;;9.60;4.73;;;;;;;;;;5130886;27;20275;-84
2024/03/04 05:30:21;;;;;;;10.67;4.93;;;;;;;;;;5131181;27;20196;-84
2024/03/04 05:32:50;;;;;;;13.00;5.40;;;;;;;;;;5119968;27;20590;-83
2024/03/04 05:35:18;;;;;;;12.03;4.40;;;;;;;;;;5090021;28;20229;-84
2024/03/04 05:37:45;;;;;;;12.03;4.63;;;;;;;;;;5106353;28;20213;-84
2024/03/04 05:40:14;;;;;;;13.43;4.40;;;;;;;;;;5103619;28;20210;-84
2024/03/04 05:42:42;;;;;;;12.07;4.77;;;;;;;;;;5089717;28;20689;-83
2024/03/04 05:45:10;;;;;;;16.90;5.30;;;;;;;;;;5071552;28;20588;-83
2024/03/04 05:47:37;;;;;;;14.07;4.90;;;;;;;;;;5090033;28;20194;-83
2024/03/04 05:50:06;;;;;;;12.23;4.87;;;;;;;;;;5089662;28;20190;-83
2024/03/04 05:52:34;;;;;;;15.37;4.77;;;;;;;;;;5089789;28;20213;-83
2024/03/04 05:55:03;;;;;;;15.00;4.80;;;;;;;;;;5097030;28;20780;-83
2024/03/04 05:57:31;;;;;;;10.37;4.53;;;;;;;;;;5109907;28;20217;-82
2024/03/04 05:59:58;;;;;;;12.17;4.53;;;;;;;;;;5109579;28;20228;-83
2024/03/04 06:02:26;;;;;;;8.07;4.00;;;;;;;;;;5109854;28;20200;-83
2024/03/04 06:04:53;;;;;;;12.20;4.37;;;;;;;;;;5109646;28;20197;-83
2024/03/04 06:07:22;;;;;;;14.80;4.87;;;;;;;;;;5110115;28;20308;-84
2024/03/04 06:09:49;;;;;;;12.87;4.53;;;;;;;;;;5109900;28;20323;-83
2024/03/04 06:12:17;;;;;;;9.57;4.20;;;;;;;;;;5115558;27;20200;-82
2024/03/04 06:14:44;;;;;;;14.27;4.60;;;;;;;;;;5130297;27;20288;-83
2024/03/04 06:17:12;;;;;;;9.27;4.23;;;;;;;;;;5111080;27;20251;-82
2024/03/04 06:19:39;;;;;;;13.57;4.37;;;;;;;;;;5111383;28;20189;-83
2024/03/04 06:22:06;;;;;;;14.07;4.50;;;;;;;;;;5129961;27;20684;-85
2024/03/04 06:24:35;;;;;;;12.30;4.43;;;;;;;;;;5130440;27;20197;-82
2024/03/04 06:27:03;;;;;;;14.00;3.73;;;;;;;;;;5129921;27;20199;-82
2024/03/04 06:29:32;;;;;;;9.70;4.10;;;;;;;;;;5129575;28;20671;-83
2024/03/04 06:32:00;;;;;;;12.57;4.00;;;;;;;;;;5129967;27;20204;-81
2024/03/04 06:34:27;;;;;;;9.47;4.50;;;;;;;;;;5129855;27;20198;-81
2024/03/04 06:36:54;;;;;;;10.47;3.80;;;;;;;;;;5130020;27;20236;-81
2024/03/04 06:39:21;;;;;;;11.93;3.97;;;;;;;;;;5129764;27;20316;-80
2024/03/04 06:41:50;;;;;;;13.83;3.83;;;;;;;;;;5129843;27;20192;-81
2024/03/04 06:44:17;;;;;;;8.33;3.33;;;;;;;;;;5130077;28;20285;-81
2024/03/04 06:46:45;;;;;;;11.27;3.90;;;;;;;;;;5130135;28;20194;-81
2024/03/04 06:49:12;;;;;;;17.10;5.87;;;;;;;;;;5129631;28;20642;-80
2024/03/04 06:51:39;;;;;;;13.57;3.83;;;;;;;;;;5130007;28;20215;-81
2024/03/04 06:54:07;;;;;;;11.83;4.20;;;;;;;;;;5104872;28;20205;-82
2024/03/04 06:56:34;;;;;;;10.77;3.53;;;;;;;;;;5108449;28;20232;-81
2024/03/04 06:59:03;;;;;;;8.60;3.57;;;;;;;;;;5109392;28;20196;-81
2024/03/04 07:01:31;;;;;;;9.37;3.33;;;;;;;;;;5110504;28;20191;-81
2024/03/04 07:03:58;;;;;;;11.73;3.90;;;;;;;;;;5111052;28;20204;-81
2024/03/04 07:06:25;;;;;;;11.30;3.70;;;;;;;;;;5110865;28;20689;-82
2024/03/04 07:08:53;;;;;;;11.67;3.23;;;;;;;;;;5111272;28;20201;-81
2024/03/04 07:11:20;;;;;;;9.43;3.17;;;;;;;;;;5109798;28;20226;-81
2024/03/04 07:13:47;;;;;;;9.50;2.70;;;;;;;;;;5118395;28;20293;-81
2024/03/04 07:16:16;;;;;;;11.40;3.87;;;;;;;;;;5110341;28;20246;-81
2024/03/04 07:18:43;;;;;;;9.87;3.50;;;;;;;;;;5110571;28;20194;-81
2024/03/04 07:21:15;;;;;;;7.63;3.70;;;;;;;;;;5108824;28;20281;-81
2024/03/04 07:23:42;;;;;;;10.17;3.53;;;;;;;;;;5110898;28;20197;-81
2024/03/04 07:26:10;;;;;;;10.23;3.20;;;;;;;;;;5110038;28;20201;-81
2024/03/04 07:28:40;;;;;;;10.20;2.93;;;;;;;;;;5110806;28;20202;-81
2024/03/04 07:31:07;;;;;;;10.20;3.10;;;;;;;;;;5110836;28;20196;-81
2024/03/04 07:33:35;;;;;;;8.43;3.23;;;;;;;;;;5110249;28;20240;-81
2024/03/04 07:36:03;;;;;;;10.33;3.33;;;;;;;;;;5111125;28;20235;-81
2024/03/04 07:38:30;;;;;;;7.60;2.80;;;;;;;;;;5110752;28;20205;-81
2024/03/04 07:40:57;;;;;;;7.73;3.17;;;;;;;;;;5107974;28;20304;-80
2024/03/04 07:43:24;;;;;;;5.83;3.23;;;;;;;;;;5101385;28;20691;-80
2024/03/04 07:45:51;;;;;;;8.00;3.10;;;;;;;;;;5094539;28;20199;-79
2024/03/04 07:48:19;;;;;;;7.93;2.97;;;;;;;;;;5094237;28;20201;-81
2024/03/04 07:50:47;;;;;;;6.80;2.73;;;;;;;;;;5093708;28;20198;-81
2024/03/04 07:53:14;;;;;;;8.13;2.53;;;;;;;;;;5093809;28;20298;-80
2024/03/04 07:55:42;;;;;;;10.50;2.80;;;;;;;;;;5093120;28;20222;-81
2024/03/04 07:58:09;;;;;;;10.43;3.00;;;;;;;;;;5109218;28;20292;-81
2024/03/04 08:00:36;;;;;;;9.00;2.53;;;;;;;;;;5113801;28;20194;-81
2024/03/04 08:03:04;;;;;;;6.47;2.10;;;;;;;;;;5113818;28;20236;-81
2024/03/04 08:05:31;;;;;;;8.73;3.13;;;;;;;;;;5114193;28;20197;-81
2024/03/04 08:08:01;;;;;;;7.87;2.47;;;;;;;;;;5113811;28;20201;-81
2024/03/04 08:10:28;;;;;;;6.80;2.70;;;;;;;;;;5094395;28;20222;-80
2024/03/04 08:12:55;;;;;;;6.73;2.37;;;;;;;;;;5114371;27;20292;-80
2024/03/04 08:15:22;;;;;;;9.07;2.77;;;;;;;;;;5134140;27;20236;-81
2024/03/04 08:17:50;;;;;;;8.57;2.90;;;;;;;;;;5134484;27;20276;-81
2024/03/04 08:20:21;;;;;;;8.90;2.53;;;;;;;;;;5134470;27;20215;-81
2024/03/04 08:22:48;;;;;;;6.93;2.60;;;;;;;;;;5134564;27;20217;-81
2024/03/04 08:25:17;;;;;;;7.00;2.40;;;;;;;;;;5133742;27;20296;-79
2024/03/04 08:27:44;;;;;;;7.73;2.50;;;;;;;;;;5134033;27;20667;-81
2024/03/04 08:30:13;;;;;;;12.30;3.07;;;;;;;;;;5134267;27;20231;-79
2024/03/04 08:32:42;;;;;;;7.03;2.37;;;;;;;;;;5124151;27;20292;-81
2024/03/04 08:35:10;;;;;;;6.63;2.20;;;;;;;;;;5113536;28;20293;-80
2024/03/04 08:37:37;;;;;;;7.53;2.10;;;;;;;;;;5113458;28;20221;-80
2024/03/04 08:40:05;;;;;;;9.90;2.43;;;;;;;;;;5113007;28;20221;-81
2024/03/04 08:42:34;;;;;;;7.07;2.50;;;;;;;;;;5113073;28;20296;-81
2024/03/04 08:45:01;;;;;;;6.77;2.30;;;;;;;;;;5113315;28;20194;-81
2024/03/04 08:47:29;;;;;;;6.83;2.47;;;;;;;;;;5113648;28;20681;-80
2024/03/04 08:49:56;;;;;;;8.10;2.40;;;;;;;;;;5113080;28;20290;-81
2024/03/04 08:52:24;;;;;;;10.27;2.90;;;;;;;;;;5112466;28;20202;-80
2024/03/04 08:54:51;;;;;;;5.83;2.23;;;;;;;;;;5112701;28;20190;-81
2024/03/04 08:57:19;;;;;;;5.90;2.40;;;;;;;;;;5113014;28;20610;-80
2024/03/04 08:59:47;;;;;;;7.80;2.50;;;;;;;;;;5112578;28;20662;-80
2024/03/04 09:02:15;;;;;;;6.20;2.47;;;;;;;;;;5112618;28;20711;-81
2024/03/04 09:04:42;;;;;;;8.80;2.70;;;;;;;;;;5112589;28;20281;-80
2024/03/04 09:07:10;;;;;;;9.57;2.93;;;;;;;;;;5112036;28;20224;-81
2024/03/04 09:09:37;;;;;;;8.33;2.57;;;;;;;;;;5112645;28;20284;-81
2024/03/04 09:12:05;;;;;;;4.73;2.27;;;;;;;;;;5113121;27;20284;-82
2024/03/04 09:14:32;;;;;;;8.97;2.87;;;;;;;;;;5110320;28;21067;-82
2024/03/04 09:17:00;;;;;;;5.93;2.37;;;;;;;;;;5112757;28;20237;-81
2024/03/04 09:19:27;;;;;;;7.87;2.57;;;;;;;;;;5093899;28;20230;-81
2024/03/04 09:21:55;;;;;;;11.33;2.83;;;;;;;;;;5091727;28;20205;-80
2024/03/04 09:24:22;;;;;;;5.50;2.30;;;;;;;;;;5092171;28;20195;-81
2024/03/04 09:26:49;;;;;;;9.53;2.17;;;;;;;;;;5095838;28;20216;-81
2024/03/04 09:29:16;;;;;;;7.77;2.60;;;;;;;;;;5112148;28;20204;-80
2024/03/04 09:31:44;;;;;;;8.30;2.50;;;;;;;;;;5112177;28;20302;-81
2024/03/04 09:34:13;;;;;;;8.10;2.80;;;;;;;;;;5112342;28;20727;-80
2024/03/04 09:36:40;;;;;;;7.80;2.43;;;;;;;;;;5111614;28;20259;-81
2024/03/04 09:39:08;;;;;;;6.67;2.73;;;;;;;;;;5112326;28;20668;-81
2024/03/04 09:41:37;;;;;;;7.47;2.50;;;;;;;;;;5111929;28;20194;-81
2024/03/04 09:44:05;;;;;;;7.67;2.80;;;;;;;;;;5112137;28;20198;-81
2024/03/04 09:46:33;;;;;;;5.80;1.90;;;;;;;;;;5112113;28;20220;-81
2024/03/04 09:49:01;;;;;;;11.43;2.90;;;;;;;;;;5111944;28;20586;-81
2024/03/04 09:51:31;;;;;;;7.17;2.43;;;;;;;;;;5101078;28;20212;-80
2024/03/04 09:53:59;;;;;;;5.80;2.33;;;;;;;;;;5091686;28;20230;-81
2024/03/04 09:56:26;;;;;;;6.30;2.23;;;;;;;;;;5091329;28;20236;-80
2024/03/04 09:58:54;;;;;;;5.93;2.00;;;;;;;;;;5091482;28;20194;-80
2024/03/04 10:01:22;;;;;;;5.40;2.07;;;;;;;;;;5091459;28;20694;-80
2024/03/04 10:03:50;;;;;;;9.47;2.30;;;;;;;;;;5091328;28;20277;-82
2024/03/04 10:06:17;;;;;;;5.30;2.20;;;;;;;;;;5090678;28;20247;-81
2024/03/04 10:08:46;;;;;;;7.43;2.40;;;;;;;;;;5091719;28;20268;-82
2024/03/04 10:11:13;;;;;;;8.73;2.30;;;;;;;;;;5091389;28;20198;-81
2024/03/04 10:13:40;;;;;;;6.90;1.67;;;;;;;;;;5124408;27;20288;-81
2024/03/04 10:16:09;;;;;;;8.63;2.00;;;;;;;;;;5131988;27;20317;-80
2024/03/04 10:18:36;;;;;;;8.07;1.80;;;;;;;;;;5132078;27;20233;-81
2024/03/04 10:21:04;;;;;;;8.00;2.77;;;;;;;;;;5131440;27;20200;-81
2024/03/04 10:23:31;;;;;;;4.53;1.70;;;;;;;;;;5101997;28;20220;-81
2024/03/04 10:26:09;;;;;;;5.83;1.70;;;;;;;;;;5100561;28;20218;-80
2024/03/04 10:28:39;;;;;;;8.97;2.10;;;;;;;;;;5101896;28;20279;-81
2024/03/04 10:31:10;;;;;;;6.53;1.90;;;;;;;;;;5102353;28;20190;-81
2024/03/04 10:33:37;;;;;;;6.77;1.80;;;;;;;;;;5096285;28;20199;-80
2024/03/04 10:36:14;;;;;;;8.50;1.50;;;;;;;;;;5090519;28;20191;-80
2024/03/04 10:38:41;;;;;;;8.40;1.50;;;;;;;;;;5091513;28;20616;-79
2024/03/04 10:41:16;;;;;;;5.80;1.57;;;;;;;;;;5091013;28;20194;-81
2024/03/04 10:43:44;;;;;;;4.50;1.70;;;;;;;;;;5091008;28;20738;-80
2024/03/04 10:46:11;;;;;;;7.80;1.70;;;;;;;;;;5091150;28;20190;-78
2024/03/04 10:48:39;;;;;;;7.97;1.33;;;;;;;;;;5090444;28;20202;-80
2024/03/04 10:51:07;;;;;;;6.33;1.70;;;;;;;;;;5090882;28;20198;-79
2024/03/04 10:53:34;;;;;;;6.53;1.70;;;;;;;;;;5096746;28;20209;-80
2024/03/04 10:56:05;;;;;;;4.93;1.60;;;;;;;;;;5103715;28;20586;-80
2024/03/04 10:58:34;;;;;;;6.90;1.77;;;;;;;;;;5110868;28;20198;-80
2024/03/04 11:01:04;;;;;;;5.20;1.87;;;;;;;;;;5103999;28;20200;-80
2024/03/04 11:03:32;;;;;;;6.47;1.73;;;;;;;;;;5110345;28;20225;-80
2024/03/04 11:06:00;;;;;;;8.00;2.20;;;;;;;;;;5110982;28;20197;-81
2024/03/04 11:08:29;;;;;;;8.67;1.90;;;;;;;;;;5110651;28;20262;-80
2024/03/04 11:11:00;;;;;;;8.37;2.00;;;;;;;;;;5106686;28;20198;-82
2024/03/04 11:13:37;;;;;;;6.67;1.53;;;;;;;;;;5114927;28;20284;-81
2024/03/04 11:16:08;;;;;;;5.87;1.57;;;;;;;;;;5106921;28;20328;-80
2024/03/04 11:18:40;;;;;;;5.07;1.40;;;;;;;;;;5114353;28;20236;-81
2024/03/04 11:21:08;;;;;;;8.70;1.80;;;;;;;;;;5114674;28;20198;-80
2024/03/04 11:23:35;;;;;;;5.07;1.37;;;;;;;;;;5115234;28;20194;-81
2024/03/04 11:26:02;;;;;;;9.23;1.70;;;;;;;;;;5114422;28;20293;-80
2024/03/04 11:28:30;;;;;;;9.63;1.90;;;;;;;;;;5114979;28;20296;-81
2024/03/04 11:30:57;;;;;;;6.10;1.53;;;;;;;;;;5115199;28;20222;-79
2024/03/04 11:33:40;;;;;;;8.43;1.80;;;;;;;;;;5118397;28;20200;-80
2024/03/04 11:36:08;;;;;;;6.90;1.80;;;;;;;;;;5115261;28;20197;-80
2024/03/04 11:38:41;;;;;;;5.73;1.60;;;;;;;;;;5114382;28;20208;-80
2024/03/04 11:41:09;;;;;;;6.23;1.47;;;;;;;;;;5114493;28;20198;-81
2024/03/04 11:43:48;;;;;;;8.17;1.80;;;;;;;;;;5114410;28;20284;-81
2024/03/04 11:46:16;;;;;;;5.73;1.50;;;;;;;;;;5114604;28;20293;-81
2024/03/04 11:48:46;;;;;;;7.27;2.37;;;;;;;;;;5113921;28;20213;-81
2024/03/04 11:51:13;;;;;;;8.67;2.00;;;;;;;;;;5113491;28;20220;-80
2024/03/04 11:53:44;;;;;;;7.97;1.70;;;;;;;;;;5114388;28;20221;-82
2024/03/04 11:56:13;;;;;;;7.83;1.77;;;;;;;;;;5113932;28;20671;-81
2024/03/04 11:58:40;;;;;;;6.07;1.70;;;;;;;;;;5114398;28;20206;-81
2024/03/04 12:01:07;;;;;;;7.23;1.50;;;;;;;;;;5113246;28;20284;-81
2024/03/04 12:03:34;;;;;;;7.10;1.70;;;;;;;;;;5114087;28;20197;-81
2024/03/04 12:06:02;;;;;;;5.73;1.27;;;;;;;;;;5114022;28;20288;-82
2024/03/04 12:08:31;;;;;;;8.63;1.47;;;;;;;;;;5113793;28;20194;-82
2024/03/04 12:10:58;;;;;;;4.50;1.00;;;;;;;;;;5113725;28;20198;-82
2024/03/04 12:13:25;;;;;;;4.17;1.23;;;;;;;;;;5127943;27;20197;-81
2024/03/04 12:15:57;;;;;;;7.60;1.80;;;;;;;;;;5134008;27;20324;-81
2024/03/04 12:18:26;;;;;;;6.50;1.80;;;;;;;;;;5134085;27;20221;-82
2024/03/04 12:20:54;;;;;;;5.87;1.27;;;;;;;;;;5111711;27;20202;-80
2024/03/04 12:23:22;;;;;;;5.60;1.13;;;;;;;;;;5115040;27;20209;-81
2024/03/04 12:25:50;;;;;;;11.30;2.00;;;;;;;;;;5113383;28;20200;-82
2024/03/04 12:28:18;;;;;;;4.13;1.47;;;;;;;;;;5113106;28;20670;-80
2024/03/04 12:30:45;;;;;;;8.30;1.80;;;;;;;;;;5112998;28;20194;-82
2024/03/04 12:33:12;;;;;;;5.03;1.43;;;;;;;;;;5113734;28;20255;-81
2024/03/04 12:35:40;;;;;;;9.43;1.87;;;;;;;;;;5113873;28;20248;-80
2024/03/04 12:38:08;;;;;;;3.30;1.00;;;;;;;;;;5113153;28;20321;-80
2024/03/04 12:40:36;;;;;;;6.10;1.13;;;;;;;;;;5113253;28;20198;-81
2024/03/04 12:43:05;;;;;;;3.63;1.20;;;;;;;;;;5112971;28;20194;-81
2024/03/04 12:45:32;;;;;;;4.40;1.27;;;;;;;;;;5112511;28;20652;-82
2024/03/04 12:48:00;;;;;;;3.73;1.27;;;;;;;;;;5113018;28;21000;-79
2024/03/04 12:50:28;;;;;;;5.70;1.63;;;;;;;;;;5112984;28;20258;-80
2024/03/04 12:52:55;;;;;;;8.87;1.40;;;;;;;;;;5113136;28;20288;-80
2024/03/04 12:55:23;;;;;;;5.97;1.60;;;;;;;;;;5109723;27;20197;-82
2024/03/04 12:57:55;;;;;;;5.60;1.57;;;;;;;;;;5113120;27;20229;-80
2024/03/04 13:00:22;;;;;;;4.53;1.40;;;;;;;;;;5111898;27;20239;-81
2024/03/04 13:02:49;;;;;;;6.40;1.43;;;;;;;;;;5111596;28;20333;-81
2024/03/04 13:05:17;;;;;;;6.67;1.30;;;;;;;;;;5112268;28;20190;-82
2024/03/04 13:07:45;;;;;;;7.17;1.63;;;;;;;;;;5112289;28;20190;-82
2024/03/04 13:10:14;;;;;;;7.00;1.40;;;;;;;;;;5112287;28;20284;-82
2024/03/04 13:12:43;;;;;;;7.17;1.30;;;;;;;;;;5108966;28;20266;-81
2024/03/04 13:15:12;;;;;;;4.00;1.23;;;;;;;;;;5100556;28;20276;-81
2024/03/04 13:17:40;;;;;;;5.60;1.37;;;;;;;;;;5103189;28;20237;-81
2024/03/04 13:20:09;;;;;;;4.93;1.93;;;;;;;;;;5100703;28;20667;-81
2024/03/04 13:22:37;;;;;;;5.47;1.60;;;;;;;;;;5108330;28;20200;-82
2024/03/04 13:25:06;;;;;;;4.00;1.17;;;;;;;;;;5105420;28;20194;-81
2024/03/04 13:27:33;;;;;;;6.57;1.67;;;;;;;;;;5102495;28;20193;-81
2024/03/04 13:30:02;;;;;;;7.83;1.17;;;;;;;;;;5109409;28;20201;-82
2024/03/04 13:32:30;;;;;;;6.60;1.17;;;;;;;;;;5112279;28;20222;-82
2024/03/04 13:34:57;;;;;;;6.57;1.20;;;;;;;;;;5112912;28;20213;-83
2024/03/04 13:37:25;;;;;;;3.77;1.27;;;;;;;;;;5111923;28;20226;-80
2024/03/04 13:39:52;;;;;;;4.90;1.23;;;;;;;;;;5112476;28;20194;-81
2024/03/04 13:42:19;;;;;;;4.80;1.20;;;;;;;;;;5112130;28;20285;-81
2024/03/04 13:44:47;;;;;;;5.67;1.67;;;;;;;;;;5112373;28;20197;-80
2024/03/04 13:47:14;;;;;;;9.60;1.70;;;;;;;;;;5112296;28;20233;-81
2024/03/04 13:49:43;;;;;;;4.60;1.23;;;;;;;;;;5108947;28;20316;-80
2024/03/04 13:52:10;;;;;;;5.63;1.33;;;;;;;;;;5110505;27;20635;-80
2024/03/04 13:54:37;;;;;;;6.00;1.50;;;;;;;;;;5109891;28;20293;-82
2024/03/04 13:57:05;;;;;;;5.03;1.70;;;;;;;;;;5106154;28;20227;-80
2024/03/04 13:59:32;;;;;;;3.23;1.10;;;;;;;;;;5110575;28;20190;-81
2024/03/04 14:01:59;;;;;;;4.57;1.10;;;;;;;;;;5109045;28;20288;-80
2024/03/04 14:04:26;;;;;;;4.37;1.10;;;;;;;;;;5110993;28;20240;-81
2024/03/04 14:06:55;;;;;;;6.23;1.20;;;;;;;;;;5110836;28;20276;-80
2024/03/04 14:09:22;;;;;;;4.77;1.57;;;;;;;;;;5108676;28;20217;-80
2024/03/04 14:11:50;;;;;;;5.00;1.50;;;;;;;;;;5110377;28;20189;-79
2024/03/04 14:14:17;;;;;;;3.57;1.23;;;;;;;;;;5110916;28;20218;-80
2024/03/04 14:16:46;;;;;;;4.70;1.37;;;;;;;;;;5109380;28;20218;-81
2024/03/04 14:19:13;;;;;;;3.83;1.23;;;;;;;;;;5102191;28;20225;-79
2024/03/04 14:21:42;;;;;;;4.87;1.70;;;;;;;;;;5100061;28;20240;-80
2024/03/04 14:24:10;;;;;;;4.90;1.50;;;;;;;;;;5101006;28;20213;-81
2024/03/04 14:26:38;;;;;;;4.67;1.70;;;;;;;;;;5100880;28;20277;-79
2024/03/04 14:29:05;;;;;;;7.63;1.80;;;;;;;;;;5099472;28;20719;-79
2024/03/04 14:31:32;;;;;;;4.13;1.10;;;;;;;;;;5108345;28;20276;-81
2024/03/04 14:34:00;;;;;;;5.87;1.33;;;;;;;;;;5110893;28;20939;-81
2024/03/04 14:36:28;;;;;;;5.10;1.07;;;;;;;;;;5119153;28;20872;-80
2024/03/04 14:38:55;;;;;;;2.63;0.90;;;;;;;;;;5110754;28;20233;-79
2024/03/04 14:41:24;;;;;;;1.97;0.80;;;;;;;;;;5110556;28;20207;-80
2024/03/04 14:43:52;;;;;;;2.90;0.80;;;;;;;;;;5110498;28;20262;-80